Iturama, Brazil
Current Conditions -  °F | °C
As of 4:00 AM on Friday 31 Oct 2014 (Local Time) from SBSR Reporting Station
Broken Clouds Broken Clouds  
Wind Chill: 72°   Ceiling: 8000
Heat Index: 72°   Visibility: 6mi
Dew Point: 66°   Wind: 6mph
Humidity: 83%   Direction: 60°ENE
Pressure: 29.97"   Gusts: NA
Location:  19.73°S, 50.2°W
Report Text: SBSR 310600Z 06005KT 9999 SCT007 BKN080 22/19 Q1015
Loading
Personal Weather Stations






























Interactive Weather Map
Tropical Storm Tracking
New forecast layout! Learn more

10-Day Weather Forecast

Advertisements
Track Severe Weather on mobile